sensor_id;sensor_type;location;lat;lon;timestamp;P1;durP1;ratioP1;P2;durP2;ratioP2
3995;SDS011;2012;49.794;9.722;2024-03-23T00:53:30;12.40;;;7.30;;
3995;SDS011;2012;49.794;9.722;2024-03-23T00:55:57;10.97;;;8.13;;
3995;SDS011;2012;49.794;9.722;2024-03-23T00:58:23;8.00;;;7.20;;
3995;SDS011;2012;49.794;9.722;2024-03-23T01:00:49;12.73;;;7.80;;
3995;SDS011;2012;49.794;9.722;2024-03-23T01:03:15;8.47;;;7.60;;
3995;SDS011;2012;49.794;9.722;2024-03-23T01:05:40;13.70;;;7.33;;
3995;SDS011;2012;49.794;9.722;2024-03-23T01:08:06;9.60;;;6.40;;
3995;SDS011;2012;49.794;9.722;2024-03-23T01:10:32;9.27;;;6.33;;
3995;SDS011;2012;49.794;9.722;2024-03-23T01:12:58;11.00;;;7.50;;
3995;SDS011;2012;49.794;9.722;2024-03-23T01:15:24;8.20;;;6.23;;
3995;SDS011;2012;49.794;9.722;2024-03-23T01:17:52;11.03;;;7.47;;
3995;SDS011;2012;49.794;9.722;2024-03-23T01:20:18;9.23;;;6.60;;
3995;SDS011;2012;49.794;9.722;2024-03-23T01:22:45;14.70;;;7.63;;
3995;SDS011;2012;49.794;9.722;2024-03-23T01:25:11;10.07;;;7.27;;
3995;SDS011;2012;49.794;9.722;2024-03-23T01:27:36;10.63;;;7.77;;
3995;SDS011;2012;49.794;9.722;2024-03-23T01:30:02;10.73;;;6.77;;
3995;SDS011;2012;49.794;9.722;2024-03-23T01:32:29;6.50;;;5.60;;
3995;SDS011;2012;49.794;9.722;2024-03-23T01:34:54;10.77;;;6.97;;
3995;SDS011;2012;49.794;9.722;2024-03-23T01:37:20;13.77;;;7.30;;
3995;SDS011;2012;49.794;9.722;2024-03-23T01:39:46;6.23;;;5.53;;
3995;SDS011;2012;49.794;9.722;2024-03-23T01:42:12;13.20;;;7.20;;
3995;SDS011;2012;49.794;9.722;2024-03-23T01:44:38;10.90;;;6.77;;
3995;SDS011;2012;49.794;9.722;2024-03-23T01:47:04;9.70;;;6.53;;
3995;SDS011;2012;49.794;9.722;2024-03-23T01:49:32;17.47;;;7.00;;
3995;SDS011;2012;49.794;9.722;2024-03-23T01:51:59;8.10;;;6.70;;
3995;SDS011;2012;49.794;9.722;2024-03-23T01:54:25;9.97;;;6.30;;
3995;SDS011;2012;49.794;9.722;2024-03-23T01:56:51;7.73;;;6.53;;
3995;SDS011;2012;49.794;9.722;2024-03-23T01:59:17;10.90;;;6.90;;
3995;SDS011;2012;49.794;9.722;2024-03-23T02:01:43;9.17;;;6.40;;
3995;SDS011;2012;49.794;9.722;2024-03-23T02:04:09;14.10;;;7.63;;
3995;SDS011;2012;49.794;9.722;2024-03-23T02:06:35;10.67;;;7.50;;
3995;SDS011;2012;49.794;9.722;2024-03-23T02:09:01;11.13;;;7.10;;
3995;SDS011;2012;49.794;9.722;2024-03-23T02:11:29;8.00;;;6.73;;
3995;SDS011;2012;49.794;9.722;2024-03-23T02:13:54;16.53;;;7.03;;
3995;SDS011;2012;49.794;9.722;2024-03-23T02:16:21;11.50;;;7.90;;
3995;SDS011;2012;49.794;9.722;2024-03-23T02:18:46;8.87;;;7.40;;
3995;SDS011;2012;49.794;9.722;2024-03-23T02:21:12;15.87;;;8.80;;
3995;SDS011;2012;49.794;9.722;2024-03-23T02:23:38;13.50;;;8.00;;
3995;SDS011;2012;49.794;9.722;2024-03-23T02:26:04;12.30;;;7.47;;
3995;SDS011;2012;49.794;9.722;2024-03-23T02:28:30;12.90;;;6.53;;
3995;SDS011;2012;49.794;9.722;2024-03-23T02:30:56;8.67;;;7.47;;
3995;SDS011;2012;49.794;9.722;2024-03-23T02:33:23;12.60;;;7.20;;
3995;SDS011;2012;49.794;9.722;2024-03-23T02:35:49;12.73;;;7.40;;
3995;SDS011;2012;49.794;9.722;2024-03-23T02:38:15;11.03;;;7.80;;
3995;SDS011;2012;49.794;9.722;2024-03-23T02:40:41;12.23;;;8.50;;
3995;SDS011;2012;49.794;9.722;2024-03-23T02:43:07;11.27;;;7.50;;
3995;SDS011;2012;49.794;9.722;2024-03-23T02:45:33;10.50;;;7.03;;
3995;SDS011;2012;49.794;9.722;2024-03-23T02:47:59;10.60;;;6.87;;
3995;SDS011;2012;49.794;9.722;2024-03-23T02:50:25;9.67;;;8.40;;
3995;SDS011;2012;49.794;9.722;2024-03-23T02:52:51;11.70;;;8.70;;
3995;SDS011;2012;49.794;9.722;2024-03-23T02:55:17;8.90;;;7.67;;
3995;SDS011;2012;49.794;9.722;2024-03-23T02:57:43;13.90;;;7.67;;
3995;SDS011;2012;49.794;9.722;2024-03-23T03:00:10;10.50;;;7.10;;
3995;SDS011;2012;49.794;9.722;2024-03-23T03:02:36;17.83;;;6.83;;
3995;SDS011;2012;49.794;9.722;2024-03-23T03:05:03;14.87;;;8.37;;
3995;SDS011;2012;49.794;9.722;2024-03-23T03:07:31;13.17;;;8.60;;
3995;SDS011;2012;49.794;9.722;2024-03-23T03:09:57;14.20;;;9.37;;
3995;SDS011;2012;49.794;9.722;2024-03-23T03:12:23;14.23;;;8.57;;
3995;SDS011;2012;49.794;9.722;2024-03-23T03:14:49;10.93;;;7.70;;
3995;SDS011;2012;49.794;9.722;2024-03-23T03:17:14;20.77;;;9.00;;
3995;SDS011;2012;49.794;9.722;2024-03-23T03:19:40;7.40;;;6.10;;
3995;SDS011;2012;49.794;9.722;2024-03-23T03:22:06;13.73;;;9.50;;
3995;SDS011;2012;49.794;9.722;2024-03-23T03:24:32;15.37;;;9.70;;
3995;SDS011;2012;49.794;9.722;2024-03-23T03:26:58;11.47;;;9.07;;
3995;SDS011;2012;49.794;9.722;2024-03-23T03:29:24;16.77;;;10.03;;
3995;SDS011;2012;49.794;9.722;2024-03-23T03:31:50;12.50;;;8.87;;
3995;SDS011;2012;49.794;9.722;2024-03-23T03:34:16;13.60;;;7.47;;
3995;SDS011;2012;49.794;9.722;2024-03-23T03:36:42;7.20;;;6.30;;
3995;SDS011;2012;49.794;9.722;2024-03-23T03:39:08;10.97;;;8.10;;
3995;SDS011;2012;49.794;9.722;2024-03-23T03:41:34;15.20;;;8.20;;
3995;SDS011;2012;49.794;9.722;2024-03-23T03:44:00;11.63;;;7.40;;
3995;SDS011;2012;49.794;9.722;2024-03-23T03:46:28;10.93;;;8.53;;
3995;SDS011;2012;49.794;9.722;2024-03-23T03:48:54;12.70;;;8.50;;
3995;SDS011;2012;49.794;9.722;2024-03-23T03:51:20;19.07;;;8.23;;
3995;SDS011;2012;49.794;9.722;2024-03-23T03:53:46;10.53;;;8.20;;
3995;SDS011;2012;49.794;9.722;2024-03-23T03:56:12;13.10;;;8.90;;
3995;SDS011;2012;49.794;9.722;2024-03-23T03:58:38;11.97;;;9.40;;
3995;SDS011;2012;49.794;9.722;2024-03-23T04:01:05;11.27;;;7.97;;
3995;SDS011;2012;49.794;9.722;2024-03-23T04:03:31;12.37;;;7.90;;
3995;SDS011;2012;49.794;9.722;2024-03-23T04:05:57;16.10;;;8.83;;
3995;SDS011;2012;49.794;9.722;2024-03-23T04:08:23;11.00;;;7.40;;
3995;SDS011;2012;49.794;9.722;2024-03-23T04:10:49;12.47;;;7.20;;
3995;SDS011;2012;49.794;9.722;2024-03-23T04:13:15;10.10;;;7.63;;
3995;SDS011;2012;49.794;9.722;2024-03-23T04:15:41;8.87;;;6.80;;
3995;SDS011;2012;49.794;9.722;2024-03-23T04:18:08;17.60;;;10.97;;
3995;SDS011;2012;49.794;9.722;2024-03-23T04:20:34;17.37;;;9.50;;
3995;SDS011;2012;49.794;9.722;2024-03-23T04:23:00;11.13;;;8.10;;
3995;SDS011;2012;49.794;9.722;2024-03-23T04:25:25;8.13;;;7.07;;
3995;SDS011;2012;49.794;9.722;2024-03-23T04:27:52;10.17;;;7.60;;
3995;SDS011;2012;49.794;9.722;2024-03-23T04:30:17;9.50;;;6.77;;
3995;SDS011;2012;49.794;9.722;2024-03-23T04:32:44;11.60;;;8.77;;
3995;SDS011;2012;49.794;9.722;2024-03-23T04:35:10;13.83;;;8.63;;
3995;SDS011;2012;49.794;9.722;2024-03-23T04:37:37;10.33;;;7.77;;
3995;SDS011;2012;49.794;9.722;2024-03-23T04:40:06;13.00;;;8.43;;
3995;SDS011;2012;49.794;9.722;2024-03-23T04:42:32;13.63;;;8.10;;
3995;SDS011;2012;49.794;9.722;2024-03-23T04:44:59;8.53;;;6.80;;
3995;SDS011;2012;49.794;9.722;2024-03-23T04:47:25;12.50;;;8.97;;
3995;SDS011;2012;49.794;9.722;2024-03-23T04:49:51;11.17;;;8.10;;
3995;SDS011;2012;49.794;9.722;2024-03-23T04:52:17;11.80;;;8.10;;
3995;SDS011;2012;49.794;9.722;2024-03-23T04:54:43;15.47;;;9.40;;
3995;SDS011;2012;49.794;9.722;2024-03-23T04:57:10;12.50;;;8.40;;
3995;SDS011;2012;49.794;9.722;2024-03-23T04:59:36;11.57;;;8.00;;
3995;SDS011;2012;49.794;9.722;2024-03-23T05:02:02;14.50;;;9.90;;
3995;SDS011;2012;49.794;9.722;2024-03-23T05:04:28;14.37;;;9.90;;
3995;SDS011;2012;49.794;9.722;2024-03-23T05:06:54;12.80;;;8.97;;
3995;SDS011;2012;49.794;9.722;2024-03-23T05:09:20;17.63;;;9.80;;
3995;SDS011;2012;49.794;9.722;2024-03-23T05:11:47;15.30;;;10.53;;
3995;SDS011;2012;49.794;9.722;2024-03-23T05:14:13;13.27;;;9.70;;
3995;SDS011;2012;49.794;9.722;2024-03-23T05:16:39;16.27;;;11.10;;
3995;SDS011;2012;49.794;9.722;2024-03-23T05:19:06;18.40;;;11.27;;
3995;SDS011;2012;49.794;9.722;2024-03-23T05:21:32;17.60;;;11.30;;
3995;SDS011;2012;49.794;9.722;2024-03-23T05:23:57;17.97;;;13.07;;
3995;SDS011;2012;49.794;9.722;2024-03-23T05:26:23;17.53;;;10.87;;
3995;SDS011;2012;49.794;9.722;2024-03-23T05:28:49;15.83;;;10.90;;
3995;SDS011;2012;49.794;9.722;2024-03-23T05:31:22;18.63;;;10.63;;
3995;SDS011;2012;49.794;9.722;2024-03-23T05:33:49;14.43;;;9.70;;
3995;SDS011;2012;49.794;9.722;2024-03-23T05:36:15;16.23;;;10.27;;
3995;SDS011;2012;49.794;9.722;2024-03-23T05:38:42;13.90;;;10.30;;
3995;SDS011;2012;49.794;9.722;2024-03-23T05:41:08;18.53;;;11.10;;
3995;SDS011;2012;49.794;9.722;2024-03-23T05:43:34;14.60;;;9.33;;
3995;SDS011;2012;49.794;9.722;2024-03-23T05:46:00;21.30;;;9.97;;
3995;SDS011;2012;49.794;9.722;2024-03-23T05:48:27;17.70;;;9.47;;
3995;SDS011;2012;49.794;9.722;2024-03-23T05:50:53;12.07;;;8.50;;
3995;SDS011;2012;49.794;9.722;2024-03-23T05:53:19;9.13;;;7.73;;
3995;SDS011;2012;49.794;9.722;2024-03-23T05:55:48;13.83;;;7.43;;
3995;SDS011;2012;49.794;9.722;2024-03-23T05:58:15;12.97;;;8.30;;
3995;SDS011;2012;49.794;9.722;2024-03-23T06:00:41;14.70;;;7.23;;
3995;SDS011;2012;49.794;9.722;2024-03-23T06:03:08;10.60;;;6.93;;
3995;SDS011;2012;49.794;9.722;2024-03-23T06:05:35;9.80;;;7.30;;
3995;SDS011;2012;49.794;9.722;2024-03-23T06:08:01;13.03;;;7.03;;
3995;SDS011;2012;49.794;9.722;2024-03-23T06:10:28;9.60;;;6.87;;
3995;SDS011;2012;49.794;9.722;2024-03-23T06:12:53;9.63;;;7.27;;
3995;SDS011;2012;49.794;9.722;2024-03-23T06:15:20;14.40;;;9.33;;
3995;SDS011;2012;49.794;9.722;2024-03-23T06:17:47;10.33;;;7.40;;
3995;SDS011;2012;49.794;9.722;2024-03-23T06:20:13;13.83;;;6.60;;
3995;SDS011;2012;49.794;9.722;2024-03-23T06:22:39;10.07;;;7.47;;
3995;SDS011;2012;49.794;9.722;2024-03-23T06:25:06;9.67;;;7.30;;
3995;SDS011;2012;49.794;9.722;2024-03-23T06:27:32;9.47;;;6.83;;
3995;SDS011;2012;49.794;9.722;2024-03-23T06:29:59;9.33;;;6.83;;
3995;SDS011;2012;49.794;9.722;2024-03-23T06:32:25;10.50;;;6.37;;
3995;SDS011;2012;49.794;9.722;2024-03-23T06:34:51;8.13;;;6.40;;
3995;SDS011;2012;49.794;9.722;2024-03-23T06:37:17;8.57;;;6.00;;
3995;SDS011;2012;49.794;9.722;2024-03-23T06:39:45;8.90;;;6.53;;
3995;SDS011;2012;49.794;9.722;2024-03-23T06:42:12;6.33;;;5.17;;
3995;SDS011;2012;49.794;9.722;2024-03-23T06:44:38;5.43;;;4.50;;
3995;SDS011;2012;49.794;9.722;2024-03-23T06:47:05;6.83;;;5.00;;
3995;SDS011;2012;49.794;9.722;2024-03-23T06:49:31;5.00;;;4.50;;
3995;SDS011;2012;49.794;9.722;2024-03-23T06:51:56;6.50;;;4.37;;
3995;SDS011;2012;49.794;9.722;2024-03-23T06:54:24;3.83;;;3.40;;
3995;SDS011;2012;49.794;9.722;2024-03-23T06:56:50;2.83;;;2.63;;
3995;SDS011;2012;49.794;9.722;2024-03-23T06:59:16;2.40;;;2.20;;
3995;SDS011;2012;49.794;9.722;2024-03-23T07:01:41;3.30;;;2.37;;
3995;SDS011;2012;49.794;9.722;2024-03-23T07:04:07;3.33;;;2.40;;
3995;SDS011;2012;49.794;9.722;2024-03-23T07:06:33;1.70;;;1.60;;
3995;SDS011;2012;49.794;9.722;2024-03-23T07:08:59;1.37;;;1.27;;
3995;SDS011;2012;49.794;9.722;2024-03-23T07:11:25;4.47;;;2.67;;
3995;SDS011;2012;49.794;9.722;2024-03-23T07:13:52;6.23;;;2.47;;
3995;SDS011;2012;49.794;9.722;2024-03-23T07:16:22;1.20;;;1.10;;
3995;SDS011;2012;49.794;9.722;2024-03-23T07:18:49;1.30;;;1.20;;
3995;SDS011;2012;49.794;9.722;2024-03-23T07:21:15;0.80;;;0.80;;
3995;SDS011;2012;49.794;9.722;2024-03-23T07:23:42;1.67;;;1.23;;
3995;SDS011;2012;49.794;9.722;2024-03-23T07:26:10;0.70;;;0.70;;
3995;SDS011;2012;49.794;9.722;2024-03-23T07:28:36;1.33;;;0.90;;
3995;SDS011;2012;49.794;9.722;2024-03-23T07:31:04;1.30;;;0.90;;
3995;SDS011;2012;49.794;9.722;2024-03-23T07:33:31;1.43;;;0.80;;
3995;SDS011;2012;49.794;9.722;2024-03-23T07:35:58;0.70;;;0.70;;
3995;SDS011;2012;49.794;9.722;2024-03-23T07:38:26;1.10;;;0.90;;
3995;SDS011;2012;49.794;9.722;2024-03-23T07:41:02;2.60;;;0.80;;
3995;SDS011;2012;49.794;9.722;2024-03-23T07:43:35;0.70;;;0.70;;
3995;SDS011;2012;49.794;9.722;2024-03-23T07:46:02;2.80;;;0.83;;
3995;SDS011;2012;49.794;9.722;2024-03-23T07:48:29;4.20;;;1.93;;
3995;SDS011;2012;49.794;9.722;2024-03-23T07:51:06;0.90;;;0.80;;
3995;SDS011;2012;49.794;9.722;2024-03-23T07:53:34;0.90;;;0.70;;
3995;SDS011;2012;49.794;9.722;2024-03-23T07:56:02;1.00;;;0.80;;
3995;SDS011;2012;49.794;9.722;2024-03-23T07:58:31;1.57;;;0.80;;
3995;SDS011;2012;49.794;9.722;2024-03-23T08:01:03;1.00;;;0.70;;
3995;SDS011;2012;49.794;9.722;2024-03-23T08:03:30;2.73;;;0.80;;
3995;SDS011;2012;49.794;9.722;2024-03-23T08:05:56;0.60;;;0.60;;
3995;SDS011;2012;49.794;9.722;2024-03-23T08:08:22;0.67;;;0.67;;
3995;SDS011;2012;49.794;9.722;2024-03-23T08:10:51;4.20;;;1.10;;
3995;SDS011;2012;49.794;9.722;2024-03-23T08:13:18;1.43;;;0.90;;
3995;SDS011;2012;49.794;9.722;2024-03-23T08:15:45;0.80;;;0.80;;
3995;SDS011;2012;49.794;9.722;2024-03-23T08:18:12;3.57;;;2.67;;
3995;SDS011;2012;49.794;9.722;2024-03-23T08:20:38;0.80;;;0.77;;
3995;SDS011;2012;49.794;9.722;2024-03-23T08:23:05;6.63;;;1.20;;
3995;SDS011;2012;49.794;9.722;2024-03-23T08:25:31;0.70;;;0.70;;
3995;SDS011;2012;49.794;9.722;2024-03-23T08:27:58;1.20;;;1.07;;
3995;SDS011;2012;49.794;9.722;2024-03-23T08:30:24;1.10;;;0.80;;
3995;SDS011;2012;49.794;9.722;2024-03-23T08:32:50;3.60;;;1.10;;
3995;SDS011;2012;49.794;9.722;2024-03-23T08:35:16;1.43;;;1.33;;
3995;SDS011;2012;49.794;9.722;2024-03-23T08:37:42;2.00;;;1.23;;
3995;SDS011;2012;49.794;9.722;2024-03-23T08:40:08;1.13;;;0.80;;
3995;SDS011;2012;49.794;9.722;2024-03-23T08:42:35;0.80;;;0.80;;
3995;SDS011;2012;49.794;9.722;2024-03-23T08:45:01;1.47;;;0.80;;
3995;SDS011;2012;49.794;9.722;2024-03-23T08:47:27;1.40;;;0.97;;
3995;SDS011;2012;49.794;9.722;2024-03-23T08:49:53;1.57;;;0.83;;
3995;SDS011;2012;49.794;9.722;2024-03-23T08:52:18;2.20;;;1.20;;
3995;SDS011;2012;49.794;9.722;2024-03-23T08:54:44;2.90;;;1.00;;
3995;SDS011;2012;49.794;9.722;2024-03-23T08:57:11;2.53;;;1.10;;
3995;SDS011;2012;49.794;9.722;2024-03-23T08:59:37;2.70;;;1.30;;
3995;SDS011;2012;49.794;9.722;2024-03-23T09:02:03;2.70;;;1.37;;
3995;SDS011;2012;49.794;9.722;2024-03-23T09:04:29;1.10;;;0.90;;
3995;SDS011;2012;49.794;9.722;2024-03-23T09:06:57;2.03;;;1.13;;
3995;SDS011;2012;49.794;9.722;2024-03-23T09:09:25;3.60;;;1.60;;
3995;SDS011;2012;49.794;9.722;2024-03-23T09:11:51;6.97;;;2.20;;
3995;SDS011;2012;49.794;9.722;2024-03-23T09:14:16;3.80;;;1.20;;
3995;SDS011;2012;49.794;9.722;2024-03-23T09:16:42;2.60;;;1.30;;
3995;SDS011;2012;49.794;9.722;2024-03-23T09:19:08;4.17;;;1.40;;
3995;SDS011;2012;49.794;9.722;2024-03-23T09:21:34;13.63;;;5.00;;
3995;SDS011;2012;49.794;9.722;2024-03-23T09:24:00;10.20;;;3.77;;
3995;SDS011;2012;49.794;9.722;2024-03-23T09:26:26;3.73;;;2.07;;
3995;SDS011;2012;49.794;9.722;2024-03-23T09:28:52;4.33;;;2.00;;
3995;SDS011;2012;49.794;9.722;2024-03-23T09:31:18;5.50;;;1.60;;
3995;SDS011;2012;49.794;9.722;2024-03-23T09:33:44;6.07;;;1.50;;
3995;SDS011;2012;49.794;9.722;2024-03-23T09:36:10;7.60;;;2.20;;
3995;SDS011;2012;49.794;9.722;2024-03-23T09:38:36;3.33;;;1.73;;
3995;SDS011;2012;49.794;9.722;2024-03-23T09:41:06;4.23;;;1.80;;
3995;SDS011;2012;49.794;9.722;2024-03-23T09:43:33;7.17;;;2.60;;
3995;SDS011;2012;49.794;9.722;2024-03-23T09:45:59;4.33;;;1.87;;
3995;SDS011;2012;49.794;9.722;2024-03-23T09:48:28;4.83;;;1.37;;
3995;SDS011;2012;49.794;9.722;2024-03-23T09:50:53;5.43;;;1.57;;
3995;SDS011;2012;49.794;9.722;2024-03-23T09:53:20;2.83;;;1.67;;
3995;SDS011;2012;49.794;9.722;2024-03-23T09:55:47;3.83;;;1.40;;
3995;SDS011;2012;49.794;9.722;2024-03-23T09:58:15;7.90;;;3.80;;
3995;SDS011;2012;49.794;9.722;2024-03-23T10:00:42;3.33;;;1.83;;
3995;SDS011;2012;49.794;9.722;2024-03-23T10:03:08;5.23;;;2.23;;
3995;SDS011;2012;49.794;9.722;2024-03-23T10:05:36;9.73;;;5.23;;
3995;SDS011;2012;49.794;9.722;2024-03-23T10:10:41;3.23;;;2.10;;
3995;SDS011;2012;49.794;9.722;2024-03-23T10:13:07;8.40;;;2.87;;
3995;SDS011;2012;49.794;9.722;2024-03-23T10:15:34;5.67;;;2.40;;
3995;SDS011;2012;49.794;9.722;2024-03-23T10:18:19;8.17;;;2.77;;
3995;SDS011;2012;49.794;9.722;2024-03-23T10:20:50;8.63;;;3.20;;
3995;SDS011;2012;49.794;9.722;2024-03-23T10:23:31;10.80;;;3.23;;
3995;SDS011;2012;49.794;9.722;2024-03-23T10:26:16;6.37;;;3.00;;
3995;SDS011;2012;49.794;9.722;2024-03-23T10:31:30;8.17;;;2.90;;
3995;SDS011;2012;49.794;9.722;2024-03-23T10:33:56;4.37;;;2.93;;
3995;SDS011;2012;49.794;9.722;2024-03-23T10:36:24;7.60;;;2.80;;
3995;SDS011;2012;49.794;9.722;2024-03-23T10:38:51;9.03;;;2.97;;
3995;SDS011;2012;49.794;9.722;2024-03-23T10:41:18;8.93;;;2.20;;
3995;SDS011;2012;49.794;9.722;2024-03-23T10:43:48;7.93;;;2.67;;
3995;SDS011;2012;49.794;9.722;2024-03-23T10:46:14;10.23;;;3.50;;
3995;SDS011;2012;49.794;9.722;2024-03-23T10:48:41;10.40;;;3.63;;
3995;SDS011;2012;49.794;9.722;2024-03-23T10:51:08;4.80;;;2.30;;
3995;SDS011;2012;49.794;9.722;2024-03-23T10:53:35;6.80;;;2.80;;
3995;SDS011;2012;49.794;9.722;2024-03-23T10:56:04;3.73;;;2.20;;
3995;SDS011;2012;49.794;9.722;2024-03-23T10:58:39;5.53;;;2.43;;
3995;SDS011;2012;49.794;9.722;2024-03-23T11:01:10;5.53;;;2.47;;
3995;SDS011;2012;49.794;9.722;2024-03-23T11:03:37;7.27;;;3.10;;
3995;SDS011;2012;49.794;9.722;2024-03-23T11:06:04;9.00;;;2.83;;
3995;SDS011;2012;49.794;9.722;2024-03-23T11:08:38;6.37;;;2.10;;
3995;SDS011;2012;49.794;9.722;2024-03-23T11:11:11;8.50;;;2.23;;
3995;SDS011;2012;49.794;9.722;2024-03-23T11:13:38;8.57;;;2.27;;
3995;SDS011;2012;49.794;9.722;2024-03-23T11:16:14;4.63;;;2.40;;
3995;SDS011;2012;49.794;9.722;2024-03-23T11:18:53;5.33;;;2.00;;
3995;SDS011;2012;49.794;9.722;2024-03-23T11:24:25;8.80;;;2.50;;
3995;SDS011;2012;49.794;9.722;2024-03-23T11:26:51;5.30;;;2.10;;
3995;SDS011;2012;49.794;9.722;2024-03-23T11:29:17;15.53;;;3.90;;
3995;SDS011;2012;49.794;9.722;2024-03-23T11:31:50;9.47;;;3.77;;
3995;SDS011;2012;49.794;9.722;2024-03-23T11:34:17;8.30;;;2.40;;
3995;SDS011;2012;49.794;9.722;2024-03-23T11:36:47;13.00;;;2.33;;
3995;SDS011;2012;49.794;9.722;2024-03-23T11:39:14;8.37;;;2.37;;
3995;SDS011;2012;49.794;9.722;2024-03-23T11:41:52;3.77;;;1.80;;
3995;SDS011;2012;49.794;9.722;2024-03-23T11:44:19;6.93;;;1.70;;
3995;SDS011;2012;49.794;9.722;2024-03-23T11:46:47;3.83;;;1.70;;
3995;SDS011;2012;49.794;9.722;2024-03-23T11:51:49;5.43;;;1.97;;
3995;SDS011;2012;49.794;9.722;2024-03-23T11:54:16;9.27;;;2.37;;
3995;SDS011;2012;49.794;9.722;2024-03-23T11:56:55;3.30;;;1.90;;
3995;SDS011;2012;49.794;9.722;2024-03-23T11:59:31;7.07;;;2.50;;
3995;SDS011;2012;49.794;9.722;2024-03-23T12:02:07;7.97;;;2.30;;
3995;SDS011;2012;49.794;9.722;2024-03-23T12:04:34;7.17;;;1.90;;
3995;SDS011;2012;49.794;9.722;2024-03-23T12:07:36;5.23;;;2.37;;
3995;SDS011;2012;49.794;9.722;2024-03-23T12:10:04;4.30;;;2.40;;
3995;SDS011;2012;49.794;9.722;2024-03-23T12:12:34;5.73;;;2.20;;
3995;SDS011;2012;49.794;9.722;2024-03-23T12:15:01;6.40;;;2.00;;
3995;SDS011;2012;49.794;9.722;2024-03-23T12:17:28;6.77;;;2.90;;
3995;SDS011;2012;49.794;9.722;2024-03-23T12:19:54;4.33;;;2.40;;
3995;SDS011;2012;49.794;9.722;2024-03-23T12:22:20;9.30;;;2.30;;
3995;SDS011;2012;49.794;9.722;2024-03-23T12:24:47;10.30;;;2.07;;
3995;SDS011;2012;49.794;9.722;2024-03-23T12:27:13;6.37;;;2.30;;
3995;SDS011;2012;49.794;9.722;2024-03-23T12:29:40;6.90;;;2.27;;
3995;SDS011;2012;49.794;9.722;2024-03-23T12:32:08;9.00;;;2.17;;
3995;SDS011;2012;49.794;9.722;2024-03-23T12:34:34;9.60;;;2.03;;
3995;SDS011;2012;49.794;9.722;2024-03-23T12:37:00;3.53;;;1.73;;
3995;SDS011;2012;49.794;9.722;2024-03-23T12:39:26;11.67;;;2.60;;
3995;SDS011;2012;49.794;9.722;2024-03-23T12:41:52;4.67;;;1.60;;
3995;SDS011;2012;49.794;9.722;2024-03-23T12:44:18;6.83;;;1.80;;
3995;SDS011;2012;49.794;9.722;2024-03-23T12:46:44;5.23;;;2.00;;
3995;SDS011;2012;49.794;9.722;2024-03-23T12:49:11;5.90;;;1.77;;
3995;SDS011;2012;49.794;9.722;2024-03-23T12:51:37;7.07;;;2.20;;
3995;SDS011;2012;49.794;9.722;2024-03-23T12:54:03;5.70;;;2.47;;
3995;SDS011;2012;49.794;9.722;2024-03-23T12:56:29;3.43;;;2.13;;
3995;SDS011;2012;49.794;9.722;2024-03-23T12:58:56;3.70;;;2.27;;
3995;SDS011;2012;49.794;9.722;2024-03-23T13:01:26;7.13;;;2.63;;
3995;SDS011;2012;49.794;9.722;2024-03-23T13:03:52;9.43;;;2.00;;
3995;SDS011;2012;49.794;9.722;2024-03-23T13:06:18;5.40;;;1.40;;
3995;SDS011;2012;49.794;9.722;2024-03-23T13:08:47;3.83;;;1.40;;
3995;SDS011;2012;49.794;9.722;2024-03-23T13:11:15;2.70;;;1.43;;
3995;SDS011;2012;49.794;9.722;2024-03-23T13:13:41;5.40;;;1.20;;
3995;SDS011;2012;49.794;9.722;2024-03-23T13:16:07;5.43;;;1.60;;
3995;SDS011;2012;49.794;9.722;2024-03-23T13:18:33;4.83;;;1.53;;
3995;SDS011;2012;49.794;9.722;2024-03-23T13:20:59;6.60;;;1.63;;
3995;SDS011;2012;49.794;9.722;2024-03-23T13:23:25;2.80;;;1.50;;
3995;SDS011;2012;49.794;9.722;2024-03-23T13:25:51;7.57;;;1.90;;
3995;SDS011;2012;49.794;9.722;2024-03-23T13:28:21;6.10;;;2.27;;
3995;SDS011;2012;49.794;9.722;2024-03-23T13:30:51;10.13;;;2.70;;
3995;SDS011;2012;49.794;9.722;2024-03-23T13:33:17;5.67;;;1.80;;
3995;SDS011;2012;49.794;9.722;2024-03-23T13:35:53;12.43;;;2.07;;
3995;SDS011;2012;49.794;9.722;2024-03-23T13:38:20;9.20;;;2.10;;
3995;SDS011;2012;49.794;9.722;2024-03-23T13:40:53;4.70;;;1.87;;
3995;SDS011;2012;49.794;9.722;2024-03-23T13:43:23;4.47;;;1.37;;
3995;SDS011;2012;49.794;9.722;2024-03-23T13:45:55;7.10;;;2.20;;
3995;SDS011;2012;49.794;9.722;2024-03-23T13:48:25;5.97;;;2.80;;
3995;SDS011;2012;49.794;9.722;2024-03-23T13:50:59;13.93;;;2.70;;
3995;SDS011;2012;49.794;9.722;2024-03-23T13:53:26;4.27;;;1.70;;
3995;SDS011;2012;49.794;9.722;2024-03-23T13:55:51;2.77;;;2.20;;
3995;SDS011;2012;49.794;9.722;2024-03-23T13:58:18;6.03;;;2.10;;
3995;SDS011;2012;49.794;9.722;2024-03-23T14:00:44;6.00;;;2.10;;
3995;SDS011;2012;49.794;9.722;2024-03-23T14:03:11;5.40;;;2.60;;
3995;SDS011;2012;49.794;9.722;2024-03-23T14:05:38;6.97;;;2.17;;
3995;SDS011;2012;49.794;9.722;2024-03-23T14:08:07;6.07;;;1.70;;
3995;SDS011;2012;49.794;9.722;2024-03-23T14:10:34;6.20;;;1.73;;
3995;SDS011;2012;49.794;9.722;2024-03-23T14:13:03;5.17;;;2.03;;
3995;SDS011;2012;49.794;9.722;2024-03-23T14:15:29;6.60;;;1.87;;
3995;SDS011;2012;49.794;9.722;2024-03-23T14:17:58;4.53;;;1.30;;
3995;SDS011;2012;49.794;9.722;2024-03-23T14:20:24;5.83;;;1.80;;
3995;SDS011;2012;49.794;9.722;2024-03-23T14:22:51;6.67;;;1.67;;
3995;SDS011;2012;49.794;9.722;2024-03-23T14:25:17;6.73;;;2.13;;
3995;SDS011;2012;49.794;9.722;2024-03-23T14:27:44;5.20;;;2.00;;
3995;SDS011;2012;49.794;9.722;2024-03-23T14:30:11;6.93;;;2.10;;
3995;SDS011;2012;49.794;9.722;2024-03-23T14:32:37;6.30;;;1.87;;
3995;SDS011;2012;49.794;9.722;2024-03-23T14:35:04;2.77;;;1.30;;
3995;SDS011;2012;49.794;9.722;2024-03-23T14:37:30;5.77;;;1.87;;
3995;SDS011;2012;49.794;9.722;2024-03-23T14:39:56;5.30;;;1.60;;
3995;SDS011;2012;49.794;9.722;2024-03-23T14:42:23;3.07;;;1.20;;
3995;SDS011;2012;49.794;9.722;2024-03-23T14:44:50;6.30;;;1.90;;
3995;SDS011;2012;49.794;9.722;2024-03-23T14:47:17;5.17;;;1.60;;
3995;SDS011;2012;49.794;9.722;2024-03-23T14:49:43;3.53;;;1.53;;
3995;SDS011;2012;49.794;9.722;2024-03-23T14:52:16;4.53;;;1.33;;
3995;SDS011;2012;49.794;9.722;2024-03-23T14:54:43;3.30;;;1.33;;
3995;SDS011;2012;49.794;9.722;2024-03-23T14:57:09;7.10;;;1.30;;
3995;SDS011;2012;49.794;9.722;2024-03-23T14:59:36;5.00;;;1.17;;
3995;SDS011;2012;49.794;9.722;2024-03-23T15:02:09;3.70;;;1.30;;
3995;SDS011;2012;49.794;9.722;2024-03-23T15:04:38;4.67;;;1.43;;
3995;SDS011;2012;49.794;9.722;2024-03-23T15:07:07;3.03;;;1.20;;
3995;SDS011;2012;49.794;9.722;2024-03-23T15:09:33;4.53;;;1.20;;
3995;SDS011;2012;49.794;9.722;2024-03-23T15:11:59;1.83;;;1.20;;
3995;SDS011;2012;49.794;9.722;2024-03-23T15:14:25;2.90;;;0.97;;
3995;SDS011;2012;49.794;9.722;2024-03-23T15:16:51;0.90;;;0.90;;
3995;SDS011;2012;49.794;9.722;2024-03-23T15:19:18;3.43;;;1.40;;
3995;SDS011;2012;49.794;9.722;2024-03-23T15:21:44;5.27;;;1.77;;
3995;SDS011;2012;49.794;9.722;2024-03-23T15:24:10;1.50;;;1.10;;
3995;SDS011;2012;49.794;9.722;2024-03-23T15:26:39;6.80;;;1.27;;
3995;SDS011;2012;49.794;9.722;2024-03-23T15:29:06;1.83;;;1.20;;
3995;SDS011;2012;49.794;9.722;2024-03-23T15:31:42;5.10;;;1.10;;
3995;SDS011;2012;49.794;9.722;2024-03-23T15:34:08;2.00;;;0.90;;
3995;SDS011;2012;49.794;9.722;2024-03-23T15:36:37;1.23;;;1.00;;
3995;SDS011;2012;49.794;9.722;2024-03-23T15:39:07;2.27;;;1.00;;
3995;SDS011;2012;49.794;9.722;2024-03-23T15:41:33;2.07;;;1.20;;
3995;SDS011;2012;49.794;9.722;2024-03-23T15:44:01;1.70;;;1.10;;
3995;SDS011;2012;49.794;9.722;2024-03-23T15:46:27;3.90;;;1.40;;
3995;SDS011;2012;49.794;9.722;2024-03-23T15:48:53;4.40;;;1.30;;
3995;SDS011;2012;49.794;9.722;2024-03-23T15:51:19;1.10;;;0.97;;
3995;SDS011;2012;49.794;9.722;2024-03-23T15:53:47;1.00;;;0.90;;
3995;SDS011;2012;49.794;9.722;2024-03-23T15:56:12;7.13;;;2.97;;
3995;SDS011;2012;49.794;9.722;2024-03-23T15:58:38;1.77;;;1.10;;
3995;SDS011;2012;49.794;9.722;2024-03-23T16:01:05;4.00;;;1.23;;
3995;SDS011;2012;49.794;9.722;2024-03-23T16:03:35;2.37;;;1.10;;
3995;SDS011;2012;49.794;9.722;2024-03-23T16:06:03;2.83;;;1.40;;
3995;SDS011;2012;49.794;9.722;2024-03-23T16:08:30;7.53;;;4.23;;
3995;SDS011;2012;49.794;9.722;2024-03-23T16:11:00;11.50;;;6.80;;
3995;SDS011;2012;49.794;9.722;2024-03-23T16:13:30;5.50;;;1.47;;